createdAt,value
2022-11-10T00:02:26.011Z,97641.91
2022-11-10T00:05:46.227Z,97647.03
2022-11-10T00:09:06.540Z,97649.09
2022-11-10T00:12:27.578Z,97653.06
2022-11-10T00:16:06.272Z,97658.19
2022-11-10T00:19:30.457Z,97660.34
2022-11-10T00:22:50.383Z,97678.03
2022-11-10T00:26:13.319Z,97675.69
2022-11-10T00:29:33.243Z,97680.66
2022-11-10T00:32:53.090Z,97683.97
2022-11-10T00:36:13.212Z,97681.47
2022-11-10T00:39:33.543Z,97681.66
2022-11-10T00:42:53.614Z,97687.94
2022-11-10T00:46:14.516Z,97696.88
2022-11-10T00:49:34.495Z,97692.41
2022-11-10T00:52:54.504Z,97702.50
2022-11-10T00:59:48.294Z,97698.84
2022-11-10T01:03:12.751Z,97705.31
2022-11-10T01:06:32.879Z,97705.00
2022-11-10T01:09:52.835Z,97703.47
2022-11-10T01:13:13.182Z,97702.50
2022-11-10T01:16:33.230Z,97700.03
2022-11-10T01:19:53.127Z,97704.13
2022-11-10T01:23:13.157Z,97707.75
2022-11-10T01:26:33.421Z,97714.47
2022-11-10T01:29:53.684Z,97723.50
2022-11-10T01:33:13.617Z,97730.25
2022-11-10T01:36:33.674Z,97734.22
2022-11-10T01:39:54.176Z,97725.91
2022-11-10T01:43:15.264Z,97738.31
2022-11-10T01:46:35.339Z,97736.75
2022-11-10T01:49:55.740Z,97749.44
2022-11-10T01:53:25.186Z,97745.41
2022-11-10T01:56:50.303Z,97757.47
2022-11-10T02:00:11.398Z,97763.88
2022-11-10T02:03:41.700Z,97762.44
2022-11-10T02:07:02.241Z,97761.84
2022-11-10T02:10:22.412Z,97766.03
2022-11-10T02:13:43.046Z,97765.53
2022-11-10T02:17:03.057Z,97764.56
2022-11-10T02:20:23.467Z,97767.50
2022-11-10T02:23:49.985Z,97770.66
2022-11-10T02:27:10.153Z,97769.69
2022-11-10T02:30:30.348Z,97785.38
2022-11-10T02:33:50.355Z,97780.94
2022-11-10T02:37:10.394Z,97791.63
2022-11-10T02:40:30.479Z,97808.47
2022-11-10T02:43:52.102Z,97808.50
2022-11-10T02:47:12.008Z,97806.38
2022-11-10T02:50:31.805Z,97801.56
2022-11-10T02:53:52.158Z,97807.03
2022-11-10T02:57:12.327Z,97807.34
2022-11-10T03:00:32.570Z,97816.38
2022-11-10T03:03:52.782Z,97816.81
2022-11-10T03:07:13.023Z,97813.75
2022-11-10T03:10:33.108Z,97826.41
2022-11-10T03:14:01.437Z,97830.41
2022-11-10T03:17:22.393Z,97833.81
2022-11-10T03:20:42.849Z,97850.47
2022-11-10T03:24:02.659Z,97833.28
2022-11-10T03:27:22.875Z,97839.19
2022-11-10T03:30:43.487Z,97839.22
2022-11-10T03:34:03.888Z,97837.72
2022-11-10T03:37:24.107Z,97834.03
2022-11-10T03:41:16.987Z,97842.56
2022-11-10T03:44:23.941Z,97854.38
2022-11-10T03:47:49.028Z,97864.09
2022-11-10T03:51:09.137Z,97871.38
2022-11-10T03:54:29.047Z,97882.84
2022-11-10T03:57:49.071Z,97885.19
2022-11-10T04:01:09.209Z,97890.03
2022-11-10T04:04:47.729Z,97891.56
2022-11-10T04:08:36.334Z,97895.84
2022-11-10T04:12:15.686Z,97895.84
2022-11-10T04:15:43.711Z,97898.34
2022-11-10T04:19:04.050Z,97905.28
2022-11-10T04:22:42.610Z,97909.72
2022-11-10T04:26:24.886Z,97908.06
2022-11-10T04:29:45.034Z,97911.97
2022-11-10T04:33:05.003Z,97915.69
2022-11-10T04:36:30.717Z,97922.25
2022-11-10T04:39:50.762Z,97916.47
2022-11-10T04:43:10.762Z,97921.72
2022-11-10T04:46:40.199Z,97931.47
2022-11-10T04:50:00.125Z,97924.47
2022-11-10T04:53:20.742Z,97928.31
2022-11-10T04:56:41.102Z,97925.56
2022-11-10T05:00:01.328Z,97933.66
2022-11-10T05:03:21.872Z,97943.81
2022-11-10T05:06:42.272Z,97960.19
2022-11-10T05:10:02.387Z,97960.94
2022-11-10T05:13:23.165Z,97971.47
2022-11-10T05:16:43.453Z,97983.00
2022-11-10T05:20:04.197Z,97977.19
2022-11-10T05:23:39.618Z,97984.53
2022-11-10T05:26:59.866Z,97977.34
2022-11-10T05:30:20.080Z,97974.31
2022-11-10T05:33:40.555Z,97979.97
2022-11-10T05:37:00.879Z,97976.25
2022-11-10T05:40:21.095Z,97988.84
2022-11-10T05:43:41.132Z,97987.34
2022-11-10T05:47:01.148Z,97993.44
2022-11-10T05:50:23.065Z,97985.09
2022-11-10T05:53:43.244Z,98000.50
2022-11-10T05:57:03.362Z,98000.47
2022-11-10T06:00:26.813Z,98003.00
2022-11-10T06:03:47.149Z,98003.84
2022-11-10T06:07:09.961Z,98012.44
2022-11-10T06:10:30.248Z,98020.28
2022-11-10T06:13:50.157Z,98012.84
2022-11-10T06:17:10.471Z,98020.72
2022-11-10T06:20:30.682Z,98024.69
2022-11-10T06:23:51.004Z,98026.09
2022-11-10T06:27:10.848Z,98028.16
2022-11-10T06:30:33.505Z,98035.22
2022-11-10T06:33:53.847Z,98042.41
2022-11-10T06:37:13.988Z,98054.03
2022-11-10T06:40:34.463Z,98055.00
2022-11-10T06:43:56.055Z,98062.19
2022-11-10T06:47:16.884Z,98066.47
2022-11-10T06:50:37.221Z,98079.63
2022-11-10T06:53:57.423Z,98076.84
2022-11-10T06:57:17.535Z,98083.22
2022-11-10T07:00:37.847Z,98086.16
2022-11-10T07:04:18.727Z,98091.84
2022-11-10T07:07:38.078Z,98094.91
2022-11-10T07:10:58.396Z,98100.34
2022-11-10T07:14:18.370Z,98116.69
2022-11-10T07:17:42.138Z,98139.69
2022-11-10T07:21:04.747Z,98126.13
2022-11-10T07:24:26.458Z,98131.53
2022-11-10T07:27:46.632Z,98138.75
2022-11-10T07:31:06.654Z,98141.69
2022-11-10T07:34:26.606Z,98158.47
2022-11-10T07:37:46.512Z,98167.19
2022-11-10T07:41:06.471Z,98174.41
2022-11-10T07:44:27.759Z,98160.81
2022-11-10T07:47:47.942Z,98170.78
2022-11-10T07:51:08.466Z,98170.25
2022-11-10T07:54:29.001Z,98174.69
2022-11-10T07:57:49.217Z,98183.84
2022-11-10T08:01:09.876Z,98179.94
2022-11-10T08:04:29.983Z,98182.72
2022-11-10T08:07:50.045Z,98192.97
2022-11-10T08:11:10.020Z,98194.63
2022-11-10T08:14:30.598Z,98209.59
2022-11-10T08:17:50.851Z,98216.50
2022-11-10T08:21:11.076Z,98211.25
2022-11-10T08:24:31.104Z,98211.22
2022-11-10T08:28:00.757Z,98211.63
2022-11-10T08:31:31.425Z,98207.16
2022-11-10T08:34:52.281Z,98211.38
2022-11-10T08:38:18.583Z,98214.69
2022-11-10T08:41:38.531Z,98222.69
2022-11-10T08:44:58.787Z,98231.81
2022-11-10T08:48:20.456Z,98237.56
2022-11-10T08:51:40.411Z,98242.66
2022-11-10T08:55:00.403Z,98246.34
2022-11-10T08:58:23.656Z,98250.91
2022-11-10T09:01:43.572Z,98249.47
2022-11-10T09:05:03.757Z,98251.38
2022-11-10T09:08:24.016Z,98248.94
2022-11-10T09:11:43.882Z,98252.13
2022-11-10T09:15:04.246Z,98260.81
2022-11-10T09:18:24.313Z,98259.38
2022-11-10T09:21:44.562Z,98262.94
2022-11-10T09:25:05.905Z,98263.28
2022-11-10T09:28:26.165Z,98260.50
2022-11-10T09:31:46.244Z,98273.66
2022-11-10T09:35:06.706Z,98289.84
2022-11-10T09:38:26.723Z,98285.91
2022-11-10T09:41:47.217Z,98292.94
2022-11-10T09:45:23.649Z,98296.78
2022-11-10T09:48:51.728Z,98298.34
2022-11-10T09:52:13.641Z,98307.31
2022-11-10T09:55:41.103Z,98314.63
2022-11-10T09:59:06.840Z,98319.00
2022-11-10T10:02:36.171Z,98318.91
2022-11-10T10:06:30.510Z,98319.78
2022-11-10T10:10:17.123Z,98323.47
2022-11-10T10:14:10.061Z,98310.94
2022-11-10T10:17:51.681Z,98319.09
2022-11-10T10:21:29.994Z,98327.38
2022-11-10T10:24:53.757Z,98328.75
2022-11-10T10:28:23.022Z,98327.78
2022-11-10T10:31:47.282Z,98317.69
2022-11-10T10:35:12.953Z,98315.38
2022-11-10T10:38:38.118Z,98309.97
2022-11-10T10:41:58.381Z,98316.25
2022-11-10T10:45:29.860Z,98300.38
2022-11-10T10:49:31.813Z,98308.84
2022-11-10T10:53:15.742Z,98302.38
2022-11-10T10:56:37.847Z,98307.50
2022-11-10T11:00:22.714Z,98300.06
2022-11-10T11:03:45.767Z,98303.59
2022-11-10T11:07:20.584Z,98297.31
2022-11-10T11:10:45.242Z,98297.16
2022-11-10T11:14:24.862Z,98288.34
2022-11-10T11:17:55.631Z,98285.06
2022-11-10T11:21:35.008Z,98279.41
2022-11-10T11:25:01.703Z,98278.25
2022-11-10T11:28:40.880Z,98281.41
2022-11-10T11:32:26.993Z,98296.31
2022-11-10T11:35:54.534Z,98294.81
2022-11-10T11:39:23.950Z,98295.31
2022-11-10T11:42:58.566Z,98297.97
2022-11-10T11:46:42.549Z,98301.47
2022-11-10T11:50:13.339Z,98303.44
2022-11-10T11:54:26.621Z,98297.63
2022-11-10T11:57:55.827Z,98309.72
2022-11-10T12:01:39.515Z,98298.63
2022-11-10T12:05:17.839Z,98291.63
2022-11-10T12:09:09.453Z,98291.75
2022-11-10T12:12:51.678Z,98289.41
2022-11-10T12:16:22.144Z,98294.19
2022-11-10T12:19:58.099Z,98289.91
2022-11-10T12:23:41.290Z,98290.78
2022-11-10T12:27:21.061Z,98291.97
2022-11-10T12:30:44.595Z,98289.25
2022-11-10T12:34:23.948Z,98279.63
2022-11-10T12:37:55.913Z,98287.94
2022-11-10T12:41:19.678Z,98286.81
2022-11-10T12:44:45.906Z,98280.81
2022-11-10T12:48:09.416Z,98287.25
2022-11-10T12:51:38.136Z,98274.13
2022-11-10T12:55:01.687Z,98273.81
2022-11-10T12:58:22.283Z,98267.97
2022-11-10T13:01:45.057Z,98270.28
2022-11-10T13:05:22.719Z,98272.13
2022-11-10T13:08:42.928Z,98271.28
2022-11-10T13:12:04.247Z,98268.28
2022-11-10T13:15:39.373Z,98272.31
2022-11-10T13:18:59.471Z,98277.63
2022-11-10T13:22:49.360Z,98277.91
2022-11-10T13:26:11.901Z,98257.97
2022-11-10T13:29:47.384Z,98273.94
2022-11-10T13:33:25.682Z,98280.28
2022-11-10T13:36:48.038Z,98273.25
2022-11-10T13:40:17.123Z,98287.03
2022-11-10T13:43:48.448Z,98291.34
2022-11-10T13:47:08.452Z,98287.22
2022-11-10T13:51:55.673Z,98282.47
2022-11-10T13:54:52.329Z,98290.47
2022-11-10T13:58:23.309Z,98293.22
2022-11-10T14:01:45.500Z,98290.94
2022-11-10T14:05:07.874Z,98283.78
2022-11-10T14:08:30.979Z,98292.94
2022-11-10T14:11:56.368Z,98288.00
2022-11-10T14:15:21.200Z,98289.25
2022-11-10T14:18:46.541Z,98301.09
2022-11-10T14:22:12.218Z,98299.50
2022-11-10T14:25:39.551Z,98298.28
2022-11-10T14:29:20.477Z,98317.91
2022-11-10T14:32:40.714Z,98324.56
2022-11-10T14:36:06.192Z,98329.03
2022-11-10T14:39:33.388Z,98322.63
2022-11-10T14:42:53.727Z,98321.97
2022-11-10T14:46:15.342Z,98333.44
2022-11-10T14:49:35.434Z,98330.34
2022-11-10T14:53:00.502Z,98327.94
2022-11-10T14:56:28.283Z,98337.44
2022-11-10T14:59:48.619Z,98334.16
2022-11-10T15:03:15.683Z,98341.13
2022-11-10T15:06:36.472Z,98342.28
2022-11-10T15:10:14.467Z,98347.44
2022-11-10T15:13:38.435Z,98338.63
2022-11-10T15:17:06.450Z,98334.63
2022-11-10T15:20:40.799Z,98346.59
2022-11-10T15:24:04.473Z,98350.91
2022-11-10T15:27:27.980Z,98362.19
2022-11-10T15:30:50.694Z,98370.16
2022-11-10T15:34:44.444Z,98368.63
2022-11-10T15:38:19.596Z,98371.59
2022-11-10T15:41:49.659Z,98377.66
2022-11-10T15:45:09.758Z,98379.91
2022-11-10T15:48:38.837Z,98377.03
2022-11-10T15:52:02.498Z,98389.06
2022-11-10T15:55:24.125Z,98372.84
2022-11-10T15:58:49.783Z,98383.81
2022-11-10T16:02:19.175Z,98387.44
2022-11-10T16:05:41.119Z,98389.78
2022-11-10T16:09:01.121Z,98389.50
2022-11-10T16:12:22.687Z,98401.13
2022-11-10T16:15:43.748Z,98396.03
2022-11-10T16:23:45.869Z,98396.34
2022-11-10T16:27:14.811Z,98411.69
2022-11-10T16:30:35.306Z,98402.13
2022-11-10T16:33:55.536Z,98412.16
2022-11-10T16:37:15.900Z,98413.72
2022-11-10T16:40:35.626Z,98424.59
2022-11-10T16:43:55.551Z,98424.19
2022-11-10T16:47:19.855Z,98431.00
2022-11-10T16:50:39.903Z,98438.19
2022-11-10T16:54:00.203Z,98446.81
2022-11-10T16:57:20.723Z,98449.03
2022-11-10T17:00:41.353Z,98451.25
2022-11-10T17:04:07.928Z,98465.53
2022-11-10T17:07:29.076Z,98462.31
2022-11-10T17:10:57.891Z,98451.41
2022-11-10T17:14:18.317Z,98466.88
2022-11-10T17:17:40.331Z,98472.00
2022-11-10T17:21:01.343Z,98469.22
2022-11-10T17:24:21.634Z,98470.03
2022-11-10T17:27:41.849Z,98470.47
2022-11-10T17:31:03.232Z,98478.19
2022-11-10T17:34:23.292Z,98478.91
2022-11-10T17:37:48.171Z,98478.09
2022-11-10T17:41:16.655Z,98477.88
2022-11-10T17:44:43.128Z,98480.00
2022-11-10T17:48:03.898Z,98481.28
2022-11-10T17:51:26.900Z,98483.81
2022-11-10T17:54:47.155Z,98486.59
2022-11-10T17:58:09.734Z,98487.84
2022-11-10T18:01:35.651Z,98484.78
2022-11-10T18:04:56.016Z,98480.91
2022-11-10T18:08:25.462Z,98485.19
2022-11-10T18:11:45.534Z,98493.94
2022-11-10T18:15:11.949Z,98482.25
2022-11-10T18:18:32.241Z,98488.34
2022-11-10T18:21:52.198Z,98487.47
2022-11-10T18:25:12.095Z,98497.59
2022-11-10T18:28:33.723Z,98503.00
2022-11-10T18:31:53.915Z,98508.22
2022-11-10T18:35:14.223Z,98511.41
2022-11-10T18:38:34.598Z,98510.97
2022-11-10T18:41:54.840Z,98508.19
2022-11-10T18:45:15.295Z,98517.72
2022-11-10T18:48:37.417Z,98518.63
2022-11-10T18:51:58.154Z,98513.44
2022-11-10T18:55:20.103Z,98517.56
2022-11-10T18:58:41.652Z,98520.44
2022-11-10T19:02:01.960Z,98509.84
2022-11-10T19:05:22.401Z,98513.84
2022-11-10T19:08:42.933Z,98523.69
2022-11-10T19:12:03.303Z,98514.38
2022-11-10T19:15:23.550Z,98514.16
2022-11-10T19:18:44.178Z,98511.00
2022-11-10T19:22:04.167Z,98519.28
2022-11-10T19:25:24.268Z,98523.25
2022-11-10T19:28:46.043Z,98519.09
2022-11-10T19:32:08.873Z,98523.06
2022-11-10T19:35:29.275Z,98518.16
2022-11-10T19:38:49.992Z,98536.47
2022-11-10T19:42:09.848Z,98532.03
2022-11-10T19:45:29.968Z,98539.47
2022-11-10T19:48:50.320Z,98542.84
2022-11-10T19:52:10.243Z,98540.59
2022-11-10T19:55:36.784Z,98545.25
2022-11-10T19:58:56.693Z,98534.25
2022-11-10T20:02:16.884Z,98542.31
2022-11-10T20:05:40.909Z,98537.66
2022-11-10T20:09:01.104Z,98543.31
2022-11-10T20:12:20.892Z,98542.94
2022-11-10T20:15:43.447Z,98548.81
2022-11-10T20:19:03.567Z,98545.59
2022-11-10T20:22:23.935Z,98533.88
2022-11-10T20:25:43.854Z,98546.31
2022-11-10T20:29:03.920Z,98541.06
2022-11-10T20:32:25.074Z,98538.06
2022-11-10T20:35:45.063Z,98541.88
2022-11-10T20:39:05.228Z,98542.22
2022-11-10T20:42:25.357Z,98543.88
2022-11-10T20:45:45.799Z,98547.91
2022-11-10T20:49:06.072Z,98555.06
2022-11-10T20:52:26.926Z,98563.69
2022-11-10T20:55:54.420Z,98553.88
2022-11-10T20:59:14.417Z,98549.34
2022-11-10T21:02:34.462Z,98556.03
2022-11-10T21:05:56.078Z,98574.19
2022-11-10T21:09:16.416Z,98562.34
2022-11-10T21:12:52.100Z,98561.38
2022-11-10T21:16:11.931Z,98561.38
2022-11-10T21:19:36.038Z,98565.31
2022-11-10T21:23:02.059Z,98578.56
2022-11-10T21:26:23.679Z,98581.41
2022-11-10T21:29:44.160Z,98580.06
2022-11-10T21:33:05.658Z,98586.75
2022-11-10T21:36:29.285Z,98587.00
2022-11-10T21:39:49.896Z,98587.94
2022-11-10T21:43:09.916Z,98580.06
2022-11-10T21:46:30.131Z,98581.97
2022-11-10T21:49:50.321Z,98582.19
2022-11-10T21:53:10.338Z,98578.94
2022-11-10T21:56:30.448Z,98575.75
2022-11-10T21:59:50.675Z,98579.50
2022-11-10T22:03:10.684Z,98577.84
2022-11-10T22:06:50.729Z,98578.06
2022-11-10T22:10:29.643Z,98586.88
2022-11-10T22:14:08.431Z,98581.16
2022-11-10T22:17:47.391Z,98584.94
2022-11-10T22:21:08.496Z,98578.25
2022-11-10T22:24:28.682Z,98568.81
2022-11-10T22:27:48.882Z,98575.13
2022-11-10T22:31:10.139Z,98575.34
2022-11-10T22:34:30.338Z,98561.53
2022-11-10T22:37:50.626Z,98560.75
2022-11-10T22:41:34.261Z,98556.59
2022-11-10T22:44:54.490Z,98557.66
2022-11-10T22:48:26.495Z,98554.53
2022-11-10T22:51:49.210Z,98552.03
2022-11-10T22:55:09.496Z,98549.50
2022-11-10T22:58:29.805Z,98553.09
2022-11-10T23:01:50.242Z,98554.75
2022-11-10T23:05:10.468Z,98553.91
2022-11-10T23:08:31.562Z,98541.75
2022-11-10T23:11:51.801Z,98553.81
2022-11-10T23:15:12.134Z,98555.81
2022-11-10T23:18:32.320Z,98543.03
2022-11-10T23:21:52.620Z,98560.44
2022-11-10T23:25:12.811Z,98560.88
2022-11-10T23:28:33.925Z,98558.25
2022-11-10T23:31:54.176Z,98551.25
2022-11-10T23:35:14.096Z,98557.41
2022-11-10T23:38:36.266Z,98559.44
2022-11-10T23:41:56.225Z,98551.28
2022-11-10T23:45:16.311Z,98555.06
2022-11-10T23:48:37.850Z,98561.34
2022-11-10T23:51:57.767Z,98566.81
2022-11-10T23:55:18.176Z,98576.66
2022-11-10T23:58:38.067Z,98558.56
